createdAt,value
2018-10-16T00:02:27.191Z,9.10
2018-10-16T00:04:56.576Z,8.47
2018-10-16T00:07:26.147Z,8.10
2018-10-16T00:09:55.636Z,8.10
2018-10-16T00:12:24.993Z,7.60
2018-10-16T00:14:54.589Z,7.77
2018-10-16T00:17:24.180Z,14.93
2018-10-16T00:19:54.035Z,8.00
2018-10-16T00:22:23.169Z,10.70
2018-10-16T00:24:52.317Z,8.13
2018-10-16T00:27:22.046Z,8.08
2018-10-16T00:29:51.417Z,7.17
2018-10-16T00:32:21.001Z,9.30
2018-10-16T00:34:50.370Z,8.58
2018-10-16T00:37:19.756Z,7.10
2018-10-16T00:39:49.167Z,8.03
2018-10-16T00:42:18.529Z,7.63
2018-10-16T00:44:47.900Z,9.73
2018-10-16T00:47:17.061Z,7.60
2018-10-16T00:49:46.431Z,7.00
2018-10-16T00:52:16.028Z,8.88
2018-10-16T00:54:45.444Z,7.90
2018-10-16T00:57:14.784Z,8.60
2018-10-16T00:59:44.136Z,7.78
2018-10-16T01:02:13.277Z,6.83
2018-10-16T01:04:42.640Z,8.57
2018-10-16T01:07:12.221Z,7.20
2018-10-16T01:09:41.989Z,7.67
2018-10-16T01:12:11.357Z,7.40
2018-10-16T01:14:40.709Z,7.77
2018-10-16T01:17:10.057Z,7.20
2018-10-16T01:19:39.649Z,8.23
2018-10-16T01:22:09.006Z,11.00
2018-10-16T01:24:38.388Z,6.90
2018-10-16T01:27:07.731Z,7.80
2018-10-16T01:29:37.114Z,8.07
2018-10-16T01:32:06.678Z,7.80
2018-10-16T01:34:36.344Z,7.07
2018-10-16T01:37:05.690Z,7.80
2018-10-16T01:39:35.139Z,7.33
2018-10-16T01:42:05.663Z,7.22
2018-10-16T01:44:35.208Z,7.17
2018-10-16T01:47:05.288Z,6.85
2018-10-16T01:49:35.284Z,7.03
2018-10-16T01:52:05.254Z,7.37
2018-10-16T01:54:35.413Z,7.30
2018-10-16T01:57:05.555Z,8.40
2018-10-16T01:59:35.484Z,7.00
2018-10-16T02:02:04.892Z,6.40
2018-10-16T02:04:34.270Z,8.25
2018-10-16T02:07:03.886Z,7.73
2018-10-16T02:09:33.226Z,7.70
2018-10-16T02:12:02.609Z,7.40
2018-10-16T02:14:32.722Z,6.80
2018-10-16T02:17:02.720Z,6.45
2018-10-16T02:19:33.182Z,7.00
2018-10-16T02:22:02.464Z,6.60
2018-10-16T02:24:32.711Z,6.90
2018-10-16T02:27:02.584Z,7.00
2018-10-16T02:29:32.525Z,7.67
2018-10-16T02:32:02.391Z,7.07
2018-10-16T02:34:31.789Z,6.77
2018-10-16T02:37:01.166Z,7.43
2018-10-16T02:39:30.561Z,7.40
2018-10-16T02:42:00.164Z,7.57
2018-10-16T02:44:29.509Z,7.10
2018-10-16T02:46:58.848Z,6.57
2018-10-16T02:49:28.160Z,6.67
2018-10-16T02:51:57.538Z,7.97
2018-10-16T02:54:27.363Z,6.23
2018-10-16T02:56:56.726Z,6.90
2018-10-16T02:59:26.582Z,7.67
2018-10-16T03:01:55.946Z,7.20
2018-10-16T03:04:25.576Z,6.73
2018-10-16T03:06:55.147Z,6.50
2018-10-16T03:09:24.484Z,7.90
2018-10-16T03:11:53.623Z,7.00
2018-10-16T03:14:23.036Z,6.93
2018-10-16T03:16:52.399Z,7.07
2018-10-16T03:19:21.757Z,6.62
2018-10-16T03:21:51.748Z,6.33
2018-10-16T03:24:20.874Z,7.87
2018-10-16T03:26:50.009Z,7.77
2018-10-16T03:29:19.384Z,6.33
2018-10-16T03:31:48.965Z,6.47
2018-10-16T03:34:18.569Z,7.25
2018-10-16T03:36:47.925Z,6.63
2018-10-16T03:39:17.069Z,6.93
2018-10-16T03:41:46.202Z,7.77
2018-10-16T03:44:15.565Z,6.77
2018-10-16T03:46:45.157Z,5.13
2018-10-16T03:49:14.390Z,6.33
2018-10-16T03:51:43.777Z,5.80
2018-10-16T03:54:13.126Z,7.07
2018-10-16T03:56:42.503Z,6.37
2018-10-16T03:59:12.160Z,6.47
2018-10-16T04:01:41.560Z,6.07
2018-10-16T04:04:10.910Z,6.83
2018-10-16T04:06:40.327Z,6.93
2018-10-16T04:09:09.404Z,6.57
2018-10-16T04:11:38.802Z,5.83
2018-10-16T04:14:08.756Z,6.37
2018-10-16T04:16:38.217Z,7.47
2018-10-16T04:19:07.545Z,5.70
2018-10-16T04:21:41.890Z,7.30
2018-10-16T04:24:11.778Z,5.70
2018-10-16T04:26:41.516Z,5.80
2018-10-16T04:29:11.795Z,6.30
2018-10-16T04:31:40.844Z,6.75
2018-10-16T04:34:10.651Z,5.70
2018-10-16T04:36:39.767Z,6.87
2018-10-16T04:39:11.750Z,5.93
2018-10-16T04:41:41.570Z,5.83
2018-10-16T04:44:11.105Z,6.00
2018-10-16T04:46:40.470Z,6.03
2018-10-16T04:49:09.916Z,8.00
2018-10-16T04:51:39.273Z,6.47
2018-10-16T04:54:08.837Z,6.30
2018-10-16T04:56:38.168Z,6.37
2018-10-16T04:59:07.293Z,5.93
2018-10-16T05:01:36.521Z,6.20
2018-10-16T05:04:06.068Z,6.07
2018-10-16T05:06:37.476Z,6.57
2018-10-16T05:09:07.839Z,5.83
2018-10-16T05:11:41.621Z,6.30
2018-10-16T05:14:10.949Z,5.77
2018-10-16T05:16:40.285Z,5.50
2018-10-16T05:19:16.389Z,5.63
2018-10-16T05:21:46.194Z,5.95
2018-10-16T05:24:16.029Z,6.17
2018-10-16T05:26:45.401Z,6.67
2018-10-16T05:29:15.040Z,6.40
2018-10-16T05:31:44.182Z,5.78
2018-10-16T05:34:13.923Z,5.90
2018-10-16T05:36:43.291Z,5.70
2018-10-16T05:39:13.107Z,5.60
2018-10-16T05:41:42.411Z,6.03
2018-10-16T05:44:11.766Z,5.30
2018-10-16T05:46:40.879Z,6.03
2018-10-16T05:49:10.225Z,5.90
2018-10-16T05:51:39.562Z,6.80
2018-10-16T05:54:08.712Z,5.60
2018-10-16T05:56:38.044Z,6.30
2018-10-16T05:59:07.528Z,5.47
2018-10-16T06:01:37.399Z,6.20
2018-10-16T06:04:06.764Z,6.13
2018-10-16T06:06:36.121Z,6.33
2018-10-16T06:09:07.242Z,6.17
2018-10-16T06:16:32.659Z,6.30
2018-10-16T06:19:02.353Z,5.27
2018-10-16T06:21:32.508Z,6.17
2018-10-16T06:24:01.845Z,5.93
2018-10-16T06:26:31.028Z,5.50
2018-10-16T06:29:00.347Z,5.93
2018-10-16T06:31:29.796Z,6.03
2018-10-16T06:34:00.814Z,6.03
2018-10-16T06:36:30.158Z,6.17
2018-10-16T06:38:59.492Z,9.03
2018-10-16T06:41:28.873Z,9.67
2018-10-16T06:43:58.674Z,15.30
2018-10-16T06:46:28.075Z,37.20
2018-10-16T06:48:57.509Z,25.33
2018-10-16T06:51:27.181Z,24.90
2018-10-16T06:53:56.841Z,31.52
2018-10-16T06:56:25.962Z,30.10
2018-10-16T06:58:55.072Z,32.13
2018-10-16T07:01:24.448Z,23.77
2018-10-16T07:03:54.250Z,23.75
2018-10-16T07:06:23.425Z,35.70
2018-10-16T07:08:52.761Z,34.43
2018-10-16T07:11:22.341Z,26.00
2018-10-16T07:13:51.895Z,27.52
2018-10-16T07:16:21.468Z,13.60
2018-10-16T07:18:50.798Z,24.10
2018-10-16T07:21:20.021Z,19.87
2018-10-16T07:23:49.360Z,27.17
2018-10-16T07:26:19.051Z,25.23
2018-10-16T07:28:48.152Z,30.77
2018-10-16T07:31:17.510Z,28.12
2018-10-16T07:33:47.091Z,36.10
2018-10-16T07:36:16.429Z,34.18
2018-10-16T07:38:45.606Z,29.23
2018-10-16T07:41:14.940Z,56.43
2018-10-16T07:43:44.680Z,75.20
2018-10-16T07:46:14.270Z,65.60
2018-10-16T07:48:43.679Z,63.63
2018-10-16T07:51:12.790Z,63.97
2018-10-16T07:53:42.173Z,49.83
2018-10-16T07:56:11.753Z,55.50
2018-10-16T07:58:41.154Z,51.83
2018-10-16T08:01:10.893Z,47.20
2018-10-16T08:03:40.977Z,47.03
2018-10-16T08:06:10.949Z,41.68
2018-10-16T08:08:40.328Z,48.27
2018-10-16T08:11:09.952Z,42.67
2018-10-16T08:13:39.331Z,51.37
2018-10-16T08:16:09.926Z,49.43
2018-10-16T08:18:39.833Z,50.13
2018-10-16T08:21:09.752Z,39.93
2018-10-16T08:23:39.335Z,39.10
2018-10-16T08:26:08.932Z,43.67
2018-10-16T08:28:38.482Z,49.93
2018-10-16T08:31:07.714Z,34.93
2018-10-16T08:33:37.090Z,37.60
2018-10-16T08:36:06.619Z,34.80
2018-10-16T08:38:43.315Z,26.30
2018-10-16T08:41:13.505Z,32.87
2018-10-16T08:43:49.509Z,36.20
2018-10-16T08:46:24.237Z,34.53
2018-10-16T08:49:05.537Z,29.40
2018-10-16T08:51:38.348Z,31.40
2018-10-16T08:54:08.262Z,28.73
2018-10-16T08:56:37.414Z,33.60
2018-10-16T08:59:06.799Z,30.73
2018-10-16T09:01:36.389Z,29.70
2018-10-16T09:04:06.120Z,36.07
2018-10-16T09:06:35.637Z,33.90
2018-10-16T09:09:10.705Z,37.60
2018-10-16T09:11:41.654Z,44.77
2018-10-16T09:14:11.361Z,43.40
2018-10-16T09:16:40.558Z,49.13
2018-10-16T09:19:09.937Z,40.40
2018-10-16T09:21:39.671Z,60.93
2018-10-16T09:24:09.035Z,73.33
2018-10-16T09:26:38.402Z,72.27
2018-10-16T09:29:07.998Z,63.30
2018-10-16T09:31:37.609Z,65.90
2018-10-16T09:34:06.969Z,63.43
2018-10-16T09:36:36.330Z,59.67
2018-10-16T09:39:07.973Z,61.63
2018-10-16T09:41:37.344Z,62.93
2018-10-16T09:44:06.948Z,70.23
2018-10-16T09:46:36.562Z,72.57
2018-10-16T09:49:05.918Z,66.35
2018-10-16T09:51:35.105Z,74.30
2018-10-16T09:54:04.381Z,62.57
2018-10-16T09:56:33.808Z,68.10
2018-10-16T09:59:04.422Z,69.90
2018-10-16T10:01:38.960Z,58.20
2018-10-16T10:04:08.316Z,54.57
2018-10-16T10:06:37.662Z,48.40
2018-10-16T10:09:10.189Z,54.27
2018-10-16T10:11:40.237Z,45.10
2018-10-16T10:14:09.846Z,45.67
2018-10-16T10:16:39.652Z,40.50
2018-10-16T10:19:09.239Z,36.53
2018-10-16T10:21:38.823Z,38.43
2018-10-16T10:24:08.355Z,39.53
2018-10-16T10:26:37.733Z,40.73
2018-10-16T10:29:07.314Z,33.23
2018-10-16T10:31:36.895Z,32.07
2018-10-16T10:34:06.255Z,38.20
2018-10-16T10:36:35.613Z,35.27
2018-10-16T10:39:08.525Z,33.10
2018-10-16T10:41:38.144Z,34.57
2018-10-16T10:44:08.681Z,32.10
2018-10-16T10:46:38.764Z,34.53
2018-10-16T10:49:09.186Z,38.40
2018-10-16T10:51:38.989Z,35.10
2018-10-16T10:54:08.604Z,31.33
2018-10-16T10:56:38.299Z,39.20
2018-10-16T10:59:07.428Z,32.67
2018-10-16T11:01:36.788Z,27.73
2018-10-16T11:04:06.142Z,28.30
2018-10-16T11:06:35.288Z,26.20
2018-10-16T11:09:06.218Z,30.80
2018-10-16T11:11:35.781Z,26.90
2018-10-16T11:14:05.133Z,40.23
2018-10-16T11:16:34.501Z,28.47
2018-10-16T11:19:04.160Z,24.82
2018-10-16T11:21:33.287Z,27.97
2018-10-16T11:24:02.658Z,47.60
2018-10-16T11:26:32.263Z,26.70
2018-10-16T11:29:01.607Z,27.77
2018-10-16T11:31:31.145Z,21.65
2018-10-16T11:34:00.661Z,22.87
2018-10-16T11:36:30.117Z,22.20
2018-10-16T11:38:59.551Z,20.72
2018-10-16T11:41:29.583Z,22.53
2018-10-16T11:43:58.918Z,21.80
2018-10-16T11:46:28.641Z,20.13
2018-10-16T11:48:58.207Z,19.17
2018-10-16T11:51:27.818Z,17.35
2018-10-16T11:53:57.386Z,26.00
2018-10-16T11:56:26.721Z,22.70
2018-10-16T11:58:55.861Z,21.80
2018-10-16T12:01:24.983Z,21.27
2018-10-16T12:03:54.405Z,19.53
2018-10-16T12:06:23.750Z,23.50
2018-10-16T12:08:52.910Z,22.50
2018-10-16T12:11:22.413Z,16.50
2018-10-16T12:13:51.729Z,62.43
2018-10-16T12:16:23.865Z,73.63
2018-10-16T12:19:00.116Z,66.30
2018-10-16T12:21:29.442Z,59.70
2018-10-16T12:23:58.843Z,55.20
2018-10-16T12:26:28.200Z,52.33
2018-10-16T12:28:57.842Z,49.90
2018-10-16T12:31:27.373Z,42.33
2018-10-16T12:33:57.116Z,40.43
2018-10-16T12:36:26.475Z,44.00
2018-10-16T12:38:55.892Z,41.42
2018-10-16T12:41:25.337Z,40.30
2018-10-16T12:43:54.529Z,38.08
2018-10-16T12:46:23.599Z,30.97
2018-10-16T12:48:52.965Z,35.77
2018-10-16T12:51:22.715Z,36.40
2018-10-16T12:53:51.857Z,27.87
2018-10-16T12:56:21.477Z,31.20
2018-10-16T12:58:50.858Z,27.30
2018-10-16T13:01:20.492Z,38.77
2018-10-16T13:03:49.882Z,33.93
2018-10-16T13:06:19.694Z,48.02
2018-10-16T13:08:49.474Z,35.27
2018-10-16T13:11:19.858Z,42.98
2018-10-16T13:13:49.804Z,43.20
2018-10-16T13:16:20.020Z,36.07
2018-10-16T13:18:50.743Z,38.75
2018-10-16T13:21:20.310Z,42.23
2018-10-16T13:23:50.133Z,42.30
2018-10-16T13:26:20.017Z,35.30
2018-10-16T13:28:50.463Z,40.80
2018-10-16T13:31:20.229Z,43.50
2018-10-16T13:33:50.654Z,46.68
2018-10-16T13:36:20.565Z,42.73
2018-10-16T13:38:50.552Z,57.50
2018-10-16T13:41:20.664Z,56.87
2018-10-16T13:43:50.900Z,74.77
2018-10-16T13:46:21.047Z,65.10
2018-10-16T13:48:50.723Z,69.73
2018-10-16T13:51:20.842Z,65.13
2018-10-16T13:53:51.370Z,62.20
2018-10-16T13:56:20.694Z,66.17
2018-10-16T13:58:50.050Z,68.83
2018-10-16T14:01:20.317Z,71.13
2018-10-16T14:03:49.443Z,66.00
2018-10-16T14:06:18.829Z,62.50
2018-10-16T14:08:48.185Z,66.30
2018-10-16T14:11:17.564Z,63.27
2018-10-16T14:13:47.235Z,62.83
2018-10-16T14:16:16.495Z,64.00
2018-10-16T14:18:45.916Z,54.33
2018-10-16T14:21:15.311Z,57.90
2018-10-16T14:23:44.647Z,54.67
2018-10-16T14:26:14.109Z,53.30
2018-10-16T14:28:43.421Z,51.30
2018-10-16T14:31:12.536Z,48.80
2018-10-16T14:33:42.009Z,41.30
2018-10-16T14:36:11.890Z,44.90
2018-10-16T14:38:41.299Z,38.20
2018-10-16T14:41:10.662Z,35.80
2018-10-16T14:43:40.258Z,37.73
2018-10-16T14:46:09.898Z,40.93
2018-10-16T14:48:39.671Z,35.97
2018-10-16T14:51:09.035Z,40.40
2018-10-16T14:53:38.385Z,32.20
2018-10-16T14:56:07.950Z,36.70
2018-10-16T14:58:37.393Z,32.57
2018-10-16T15:01:06.757Z,35.40
2018-10-16T15:03:36.181Z,28.73
2018-10-16T15:06:05.548Z,23.57
2018-10-16T15:08:34.689Z,26.97
2018-10-16T15:11:04.068Z,27.20
2018-10-16T15:13:33.691Z,24.80
2018-10-16T15:16:03.475Z,22.13
2018-10-16T15:18:33.157Z,32.13
2018-10-16T15:21:02.745Z,27.47
2018-10-16T15:23:32.378Z,27.00
2018-10-16T15:26:01.650Z,21.73
2018-10-16T15:28:31.352Z,26.03
2018-10-16T15:31:00.944Z,22.47
2018-10-16T15:33:30.384Z,25.20
2018-10-16T15:36:00.311Z,21.43
2018-10-16T15:38:29.911Z,19.90
2018-10-16T15:40:59.302Z,23.20
2018-10-16T15:43:28.570Z,25.47
2018-10-16T15:45:57.956Z,27.97
2018-10-16T15:48:27.859Z,25.43
2018-10-16T15:50:57.204Z,22.53
2018-10-16T15:53:26.567Z,21.23
2018-10-16T15:55:56.221Z,22.00
2018-10-16T15:58:25.792Z,22.20
2018-10-16T16:00:55.396Z,24.73
2018-10-16T16:03:25.086Z,20.77
2018-10-16T16:05:54.881Z,18.98
2018-10-16T16:08:25.140Z,18.37
2018-10-16T16:10:54.570Z,20.03
2018-10-16T16:13:23.963Z,18.93
2018-10-16T16:15:53.543Z,22.80
2018-10-16T16:18:22.986Z,19.93
2018-10-16T16:20:52.277Z,21.40
2018-10-16T16:23:22.101Z,22.23
2018-10-16T16:25:51.517Z,23.33
2018-10-16T16:28:20.569Z,19.30
2018-10-16T16:30:49.713Z,21.33
2018-10-16T16:33:18.846Z,41.43
2018-10-16T16:35:48.198Z,21.30
2018-10-16T16:38:17.555Z,23.53
2018-10-16T16:40:46.999Z,19.23
2018-10-16T16:43:16.714Z,17.87
2018-10-16T16:45:46.090Z,21.70
2018-10-16T16:48:15.652Z,20.23
2018-10-16T16:50:45.250Z,17.77
2018-10-16T16:53:14.686Z,21.13
2018-10-16T16:55:44.346Z,17.23
2018-10-16T16:58:13.970Z,17.17
2018-10-16T17:00:43.489Z,19.73
2018-10-16T17:03:12.832Z,19.13
2018-10-16T17:05:42.202Z,20.90
2018-10-16T17:08:11.650Z,15.33
2018-10-16T17:10:41.319Z,15.10
2018-10-16T17:13:10.659Z,16.10
2018-10-16T17:15:39.803Z,16.07
2018-10-16T17:18:08.929Z,20.27
2018-10-16T17:20:38.061Z,15.50
2018-10-16T17:23:07.431Z,17.15
2018-10-16T17:25:37.094Z,17.13
2018-10-16T17:28:06.269Z,16.03
2018-10-16T17:30:35.730Z,15.93
2018-10-16T17:33:05.108Z,15.67
2018-10-16T17:35:34.451Z,14.33
2018-10-16T17:38:03.811Z,14.37
2018-10-16T17:40:33.199Z,16.83
2018-10-16T17:43:03.236Z,16.27
2018-10-16T17:45:32.828Z,14.03
2018-10-16T17:48:02.449Z,17.30
2018-10-16T17:50:32.217Z,17.50
2018-10-16T17:53:01.548Z,19.23
2018-10-16T17:55:30.907Z,15.40
2018-10-16T17:58:00.554Z,15.23
2018-10-16T18:00:29.842Z,16.20
2018-10-16T18:02:59.252Z,16.37
2018-10-16T18:05:29.010Z,20.10
2018-10-16T18:07:58.338Z,15.43
2018-10-16T18:10:27.697Z,17.13
2018-10-16T18:12:57.612Z,16.20
2018-10-16T18:15:27.490Z,18.53
2018-10-16T18:17:56.876Z,12.07
2018-10-16T18:20:26.225Z,14.37
2018-10-16T18:22:55.496Z,14.17
2018-10-16T18:25:24.892Z,14.30
2018-10-16T18:27:54.476Z,14.13
2018-10-16T18:30:23.956Z,16.30
2018-10-16T18:32:53.399Z,13.53
2018-10-16T18:35:23.246Z,14.80
2018-10-16T18:37:53.202Z,13.50
2018-10-16T18:40:22.429Z,12.83
2018-10-16T18:42:51.793Z,11.50
2018-10-16T18:45:21.142Z,14.53
2018-10-16T18:47:50.276Z,14.70
2018-10-16T18:50:19.665Z,12.30
2018-10-16T18:52:49.008Z,13.63
2018-10-16T18:55:18.387Z,12.53
2018-10-16T18:57:47.948Z,11.70
2018-10-16T19:00:18.624Z,14.03
2018-10-16T19:02:48.517Z,11.53
2018-10-16T19:05:17.637Z,11.50
2018-10-16T19:07:46.833Z,15.90
2018-10-16T19:10:16.434Z,13.08
2018-10-16T19:12:45.809Z,13.00
2018-10-16T19:15:16.308Z,11.33
2018-10-16T19:17:46.354Z,14.10
2018-10-16T19:20:16.689Z,11.20
2018-10-16T19:22:47.268Z,11.97
2018-10-16T19:25:18.368Z,12.30
2018-10-16T19:27:47.867Z,12.20
2018-10-16T19:30:17.457Z,16.50
2018-10-16T19:32:46.806Z,15.70
2018-10-16T19:35:16.686Z,12.10
2018-10-16T19:37:46.358Z,16.48
2018-10-16T19:40:15.859Z,27.53
2018-10-16T19:42:45.466Z,17.00
2018-10-16T19:45:14.864Z,15.00
2018-10-16T19:47:44.795Z,14.93
2018-10-16T19:50:13.910Z,17.17
2018-10-16T19:52:43.274Z,14.40
2018-10-16T19:55:12.617Z,14.80
2018-10-16T19:57:41.991Z,14.60
2018-10-16T20:00:11.594Z,17.20
2018-10-16T20:02:41.385Z,15.63
2018-10-16T20:05:10.875Z,12.05
2018-10-16T20:07:40.248Z,15.03
2018-10-16T20:10:11.011Z,15.53
2018-10-16T20:12:40.785Z,13.83
2018-10-16T20:15:11.635Z,10.07
2018-10-16T20:17:41.139Z,13.13
2018-10-16T20:20:11.773Z,12.75
2018-10-16T20:22:41.488Z,16.53
2018-10-16T20:25:11.659Z,14.58
2018-10-16T20:27:41.220Z,19.40
2018-10-16T20:30:11.416Z,11.93
2018-10-16T20:32:41.640Z,13.17
2018-10-16T20:35:11.226Z,11.03
2018-10-16T20:37:40.917Z,12.20
2018-10-16T20:40:10.470Z,10.37
2018-10-16T20:42:40.046Z,12.03
2018-10-16T20:45:09.398Z,13.85
2018-10-16T20:47:39.046Z,12.60
2018-10-16T20:50:08.604Z,9.50
2018-10-16T20:52:38.526Z,11.27
2018-10-16T20:55:08.285Z,11.50
2018-10-16T20:57:38.224Z,9.40
2018-10-16T21:00:08.068Z,10.53
2018-10-16T21:02:37.689Z,11.73
2018-10-16T21:05:08.367Z,10.55
2018-10-16T21:07:37.713Z,10.47
2018-10-16T21:10:07.914Z,10.10
2018-10-16T21:12:37.487Z,10.63
2018-10-16T21:15:07.254Z,17.62
2018-10-16T21:17:36.367Z,13.15
2018-10-16T21:20:06.169Z,9.77
2018-10-16T21:22:35.281Z,11.50
2018-10-16T21:25:04.939Z,16.50
2018-10-16T21:27:34.248Z,23.10
2018-10-16T21:30:03.753Z,11.37
2018-10-16T21:32:33.109Z,10.57
2018-10-16T21:35:02.704Z,10.07
2018-10-16T21:37:32.306Z,14.80
2018-10-16T21:40:01.795Z,13.08
2018-10-16T21:42:31.476Z,11.73
2018-10-16T21:45:00.817Z,15.40
2018-10-16T21:47:32.291Z,11.73
2018-10-16T21:50:01.835Z,11.70
2018-10-16T21:52:32.384Z,12.53
2018-10-16T21:55:02.957Z,10.35
2018-10-16T21:57:32.268Z,10.20
2018-10-16T22:00:02.244Z,11.17
2018-10-16T22:02:37.728Z,10.20
2018-10-16T22:05:06.852Z,10.17
2018-10-16T22:07:36.233Z,10.97
2018-10-16T22:10:05.992Z,10.30
2018-10-16T22:12:35.352Z,10.33
2018-10-16T22:15:05.402Z,10.03
2018-10-16T22:17:34.692Z,10.03
2018-10-16T22:20:04.568Z,8.57
2018-10-16T22:22:33.881Z,11.07
2018-10-16T22:25:03.317Z,9.37
2018-10-16T22:27:33.740Z,7.97
2018-10-16T22:30:03.655Z,8.43
2018-10-16T22:32:33.253Z,11.27
2018-10-16T22:35:03.239Z,9.55
2018-10-16T22:37:32.852Z,8.33
2018-10-16T22:40:02.931Z,8.10
2018-10-16T22:42:33.122Z,8.00
2018-10-16T22:45:02.461Z,9.33
2018-10-16T22:47:31.804Z,7.57
2018-10-16T22:50:01.174Z,8.67
2018-10-16T22:52:30.745Z,10.97
2018-10-16T22:55:00.113Z,8.07
2018-10-16T22:57:29.468Z,9.70
2018-10-16T22:59:59.449Z,8.10
2018-10-16T23:02:28.809Z,9.37
2018-10-16T23:04:58.158Z,7.40
2018-10-16T23:07:27.503Z,7.67
2018-10-16T23:09:57.059Z,9.50
2018-10-16T23:12:26.366Z,9.70
2018-10-16T23:14:55.728Z,9.97
2018-10-16T23:17:25.184Z,12.50
2018-10-16T23:19:54.532Z,7.80
2018-10-16T23:22:23.848Z,10.50
2018-10-16T23:24:53.218Z,8.90
2018-10-16T23:27:23.009Z,7.83
2018-10-16T23:29:52.578Z,7.67
2018-10-16T23:32:22.149Z,7.37
2018-10-16T23:34:51.544Z,6.87
2018-10-16T23:37:21.465Z,8.23
2018-10-16T23:39:50.900Z,7.83
2018-10-16T23:42:20.007Z,6.73
2018-10-16T23:44:49.360Z,7.07
2018-10-16T23:47:18.711Z,7.50
2018-10-16T23:49:48.080Z,7.20
2018-10-16T23:52:17.637Z,6.93
2018-10-16T23:54:47.139Z,6.90
2018-10-16T23:57:16.483Z,6.85
2018-10-16T23:59:45.824Z,7.50
